Time,TemperatureF,DewpointF,PressureIn,WindDirection,WindDirectionDegrees,WindSpeedMPH,WindSpeedGustMPH,Humidity,HourlyPrecipIn,Conditions,Clouds,dailyrainin,SoftwareType,DateUTC
2013-04-03 00:00:00,32.0,18.1,30.04,WSW,247,2.0,8.0,56,0.00,,,-99.99,WeatherLink 5.7,2013-04-03 04:00:00,
2013-04-03 00:30:00,31.4,17.5,30.04,WSW,247,2.0,7.0,56,0.00,,,-99.99,WeatherLink 5.7,2013-04-03 04:30:00,
2013-04-03 01:00:00,29.8,18.7,30.04,WSW,247,0.0,3.0,63,0.00,,,-99.99,WeatherLink 5.7,2013-04-03 05:00:00,
2013-04-03 01:30:00,28.2,17.9,30.03,WSW,247,1.0,4.0,65,0.00,,,-99.99,WeatherLink 5.7,2013-04-03 05:30:00,
2013-04-03 02:00:00,28.7,17.3,30.03,West,270,0.0,7.0,62,0.00,,,-99.99,WeatherLink 5.7,2013-04-03 06:00:00,
2013-04-03 02:30:00,28.6,16.5,30.03,West,270,0.0,3.0,60,0.00,,,-99.99,WeatherLink 5.7,2013-04-03 06:30:00,
2013-04-03 03:00:00,28.3,17.7,30.03,North,-999,0.0,0.0,64,0.00,,,-99.99,WeatherLink 5.7,2013-04-03 07:00:00,
2013-04-03 03:30:00,26.4,17.3,30.03,North,-999,0.0,0.0,68,0.00,,,-99.99,WeatherLink 5.7,2013-04-03 07:30:00,
2013-04-03 04:00:00,25.4,16.6,30.04,West,270,0.0,3.0,69,0.00,,,-99.99,WeatherLink 5.7,2013-04-03 08:00:00,
2013-04-03 04:30:00,26.6,17.8,30.04,West,270,0.0,2.0,69,0.00,,,-99.99,WeatherLink 5.7,2013-04-03 08:30:00,
2013-04-03 05:00:00,26.8,17.6,30.06,West,270,0.0,5.0,68,0.00,,,-99.99,WeatherLink 5.7,2013-04-03 09:00:00,
2013-04-03 05:30:00,27.4,17.9,30.07,West,270,0.0,3.0,67,0.00,,,-99.99,WeatherLink 5.7,2013-04-03 09:30:00,
2013-04-03 06:00:00,27.1,16.5,30.08,SW,225,0.0,7.0,64,0.00,,,-99.99,WeatherLink 5.7,2013-04-03 10:00:00,
2013-04-03 06:30:00,28.3,18.0,30.09,SW,225,0.0,4.0,65,0.00,,,-99.99,WeatherLink 5.7,2013-04-03 10:30:00,
2013-04-03 07:00:00,29.0,17.2,30.09,WSW,247,1.0,5.0,61,0.00,,,-99.99,WeatherLink 5.7,2013-04-03 11:00:00,
2013-04-03 07:30:00,31.4,18.7,30.10,WSW,247,1.0,6.0,59,0.00,,,-99.99,WeatherLink 5.7,2013-04-03 11:30:00,
2013-04-03 08:00:00,32.3,17.5,30.10,WSW,247,3.0,7.0,54,0.00,,,-99.99,WeatherLink 5.7,2013-04-03 12:00:00,
2013-04-03 08:30:00,33.0,16.8,30.10,West,270,3.0,10.0,51,0.00,,,-99.99,WeatherLink 5.7,2013-04-03 12:30:00,
2013-04-03 09:00:00,35.4,17.6,30.10,WSW,247,4.0,10.0,48,0.00,,,-99.99,WeatherLink 5.7,2013-04-03 13:00:00,
2013-04-03 09:30:00,36.1,17.3,30.10,WSW,247,4.0,13.0,46,0.00,,,-99.99,WeatherLink 5.7,2013-04-03 13:30:00,
2013-04-03 10:00:00,37.2,18.8,30.10,West,270,4.0,11.0,47,0.00,,,-99.99,WeatherLink 5.7,2013-04-03 14:00:00,
2013-04-03 10:30:00,38.4,18.9,30.10,West,270,4.0,12.0,45,0.00,,,-99.99,WeatherLink 5.7,2013-04-03 14:30:00,
2013-04-03 11:00:00,39.2,17.4,30.09,WSW,247,4.0,12.0,41,0.00,,,-99.99,WeatherLink 5.7,2013-04-03 15:00:00,
2013-04-03 11:30:00,39.9,17.5,30.10,WSW,247,4.0,14.0,40,0.00,,,-99.99,WeatherLink 5.7,2013-04-03 15:30:00,
2013-04-03 12:00:00,40.5,18.0,30.09,West,270,4.0,13.0,40,0.00,,,-99.99,WeatherLink 5.7,2013-04-03 16:00:00,
2013-04-03 12:30:00,40.3,17.3,30.08,West,270,4.0,11.0,39,0.00,,,-99.99,WeatherLink 5.7,2013-04-03 16:30:00,
2013-04-03 13:00:00,40.8,17.7,30.08,WSW,247,4.0,14.0,39,0.00,,,-99.99,WeatherLink 5.7,2013-04-03 17:00:00,
2013-04-03 13:30:00,42.8,17.0,30.08,WSW,247,4.0,11.0,35,0.00,,,-99.99,WeatherLink 5.7,2013-04-03 17:30:00,
2013-04-03 14:00:00,44.0,18.1,30.08,West,270,4.0,11.0,35,0.00,,,-99.99,WeatherLink 5.7,2013-04-03 18:00:00,
2013-04-03 14:30:00,44.3,18.3,30.07,West,270,4.0,14.0,35,0.00,,,-99.99,WeatherLink 5.7,2013-04-03 18:30:00,
2013-04-03 15:00:00,43.9,18.0,30.08,WSW,247,4.0,12.0,35,0.00,,,-99.99,WeatherLink 5.7,2013-04-03 19:00:00,
2013-04-03 15:30:00,42.9,17.1,30.09,WSW,247,4.0,13.0,35,0.00,,,-99.99,WeatherLink 5.7,2013-04-03 19:30:00,
2013-04-03 16:00:00,42.8,16.3,30.10,WSW,247,4.0,12.0,34,0.00,,,-99.99,WeatherLink 5.7,2013-04-03 20:00:00,
2013-04-03 16:30:00,41.7,15.4,30.12,WSW,247,5.0,16.0,34,0.00,,,-99.99,WeatherLink 5.7,2013-04-03 20:30:00,
2013-04-03 17:00:00,40.5,15.6,30.14,WSW,247,4.0,19.0,36,0.00,,,-99.99,WeatherLink 5.7,2013-04-03 21:00:00,
2013-04-03 17:30:00,39.5,14.7,30.15,WSW,247,4.0,14.0,36,0.00,,,-99.99,WeatherLink 5.7,2013-04-03 21:30:00,
2013-04-03 18:00:00,38.3,14.9,30.17,West,270,3.0,10.0,38,0.00,,,-99.99,WeatherLink 5.7,2013-04-03 22:00:00,
2013-04-03 18:30:00,37.0,14.3,30.18,West,270,2.0,9.0,39,0.00,,,-99.99,WeatherLink 5.7,2013-04-03 22:30:00,
2013-04-03 19:00:00,36.1,14.1,30.19,West,270,2.0,9.0,40,0.00,,,-99.99,WeatherLink 5.7,2013-04-03 23:00:00,
2013-04-03 19:30:00,35.0,14.7,30.20,West,270,1.0,7.0,43,0.00,,,-99.99,WeatherLink 5.7,2013-04-03 23:30:00,
2013-04-03 20:00:00,34.3,14.1,30.23,WSW,247,2.0,7.0,43,0.00,,,-99.99,WeatherLink 5.7,2013-04-04 00:00:00,
2013-04-03 20:30:00,34.1,13.9,30.24,West,270,2.0,9.0,43,0.00,,,-99.99,WeatherLink 5.7,2013-04-04 00:30:00,
2013-04-03 21:59:00,33.9,13.7,30.25,West,270,2.0,11.0,43,0.00,,,-99.99,WeatherLink 5.7,2013-04-04 01:59:00,
2013-04-03 22:29:00,33.8,14.2,30.26,West,270,2.0,7.0,44,0.00,,,-99.99,WeatherLink 5.7,2013-04-04 02:29:00,
2013-04-03 22:59:00,33.2,14.6,30.26,West,270,1.0,6.0,46,0.00,,,-99.99,WeatherLink 5.7,2013-04-04 02:59:00,
2013-04-03 23:29:00,32.0,15.0,30.27,West,270,0.0,3.0,49,0.00,,,-99.99,WeatherLink 5.7,2013-04-04 03:29:00,
2013-04-03 23:59:00,30.4,14.9,30.28,West,270,1.0,6.0,52,0.00,,,-99.99,WeatherLink 5.7,2013-04-04 03:59:00,